sensor_id;sensor_type;location;lat;lon;timestamp;P1;durP1;ratioP1;P2;durP2;ratioP2
59512;SDS011;45330;51.634;5.562;2023-09-19T00:00:29;17.90;;;3.92;;
59512;SDS011;45330;51.634;5.562;2023-09-19T00:02:55;17.92;;;4.15;;
59512;SDS011;45330;51.634;5.562;2023-09-19T00:05:22;19.40;;;3.72;;
59512;SDS011;45330;51.634;5.562;2023-09-19T00:07:49;17.42;;;3.55;;
59512;SDS011;45330;51.634;5.562;2023-09-19T00:10:19;19.95;;;3.70;;
59512;SDS011;45330;51.634;5.562;2023-09-19T00:12:45;19.60;;;3.92;;
59512;SDS011;45330;51.634;5.562;2023-09-19T00:15:10;21.25;;;3.85;;
59512;SDS011;45330;51.634;5.562;2023-09-19T00:17:36;17.83;;;3.47;;
59512;SDS011;45330;51.634;5.562;2023-09-19T00:20:02;16.73;;;4.20;;
59512;SDS011;45330;51.634;5.562;2023-09-19T00:22:39;19.10;;;3.53;;
59512;SDS011;45330;51.634;5.562;2023-09-19T00:25:06;17.42;;;3.70;;
59512;SDS011;45330;51.634;5.562;2023-09-19T00:27:32;19.00;;;4.30;;
59512;SDS011;45330;51.634;5.562;2023-09-19T00:29:58;19.38;;;3.58;;
59512;SDS011;45330;51.634;5.562;2023-09-19T00:32:24;17.85;;;3.80;;
59512;SDS011;45330;51.634;5.562;2023-09-19T00:34:49;19.83;;;3.70;;
59512;SDS011;45330;51.634;5.562;2023-09-19T00:37:14;18.08;;;3.92;;
59512;SDS011;45330;51.634;5.562;2023-09-19T00:39:42;16.55;;;3.72;;
59512;SDS011;45330;51.634;5.562;2023-09-19T00:42:08;18.27;;;3.22;;
59512;SDS011;45330;51.634;5.562;2023-09-19T00:44:33;20.10;;;4.05;;
59512;SDS011;45330;51.634;5.562;2023-09-19T00:46:59;22.50;;;4.22;;
59512;SDS011;45330;51.634;5.562;2023-09-19T00:49:25;17.77;;;3.22;;
59512;SDS011;45330;51.634;5.562;2023-09-19T00:51:51;17.30;;;3.58;;
59512;SDS011;45330;51.634;5.562;2023-09-19T00:54:16;15.45;;;3.47;;
59512;SDS011;45330;51.634;5.562;2023-09-19T00:56:44;14.10;;;3.05;;
59512;SDS011;45330;51.634;5.562;2023-09-19T00:59:10;15.38;;;3.53;;
59512;SDS011;45330;51.634;5.562;2023-09-19T01:01:37;16.85;;;3.83;;
59512;SDS011;45330;51.634;5.562;2023-09-19T01:04:04;23.90;;;3.65;;
59512;SDS011;45330;51.634;5.562;2023-09-19T01:06:30;16.90;;;3.40;;
59512;SDS011;45330;51.634;5.562;2023-09-19T01:08:56;18.15;;;3.60;;
59512;SDS011;45330;51.634;5.562;2023-09-19T01:11:27;18.40;;;3.15;;
59512;SDS011;45330;51.634;5.562;2023-09-19T01:30:44;13.82;;;2.90;;
59512;SDS011;45330;51.634;5.562;2023-09-19T01:33:12;17.02;;;3.00;;
59512;SDS011;45330;51.634;5.562;2023-09-19T01:35:39;19.02;;;3.50;;
59512;SDS011;45330;51.634;5.562;2023-09-19T01:38:05;18.83;;;3.10;;
59512;SDS011;45330;51.634;5.562;2023-09-19T01:40:36;16.85;;;3.10;;
59512;SDS011;45330;51.634;5.562;2023-09-19T01:43:10;13.85;;;2.95;;
59512;SDS011;45330;51.634;5.562;2023-09-19T01:46:09;20.77;;;3.45;;
59512;SDS011;45330;51.634;5.562;2023-09-19T01:48:54;16.58;;;3.13;;
59512;SDS011;45330;51.634;5.562;2023-09-19T01:54:46;15.68;;;2.90;;
59512;SDS011;45330;51.634;5.562;2023-09-19T01:57:17;17.52;;;3.35;;
59512;SDS011;45330;51.634;5.562;2023-09-19T02:00:01;16.40;;;3.13;;
59512;SDS011;45330;51.634;5.562;2023-09-19T02:02:31;17.35;;;3.30;;
59512;SDS011;45330;51.634;5.562;2023-09-19T02:05:24;16.95;;;3.47;;
59512;SDS011;45330;51.634;5.562;2023-09-19T02:07:51;17.80;;;3.28;;
59512;SDS011;45330;51.634;5.562;2023-09-19T02:10:18;17.33;;;3.30;;
59512;SDS011;45330;51.634;5.562;2023-09-19T02:12:43;17.50;;;3.50;;
59512;SDS011;45330;51.634;5.562;2023-09-19T02:15:09;16.58;;;3.20;;
59512;SDS011;45330;51.634;5.562;2023-09-19T02:17:35;14.95;;;3.10;;
59512;SDS011;45330;51.634;5.562;2023-09-19T02:20:00;16.23;;;3.58;;
59512;SDS011;45330;51.634;5.562;2023-09-19T02:22:28;20.40;;;3.97;;
59512;SDS011;45330;51.634;5.562;2023-09-19T02:24:54;16.90;;;3.20;;
59512;SDS011;45330;51.634;5.562;2023-09-19T02:27:23;15.02;;;2.90;;
59512;SDS011;45330;51.634;5.562;2023-09-19T02:29:48;16.30;;;3.10;;
59512;SDS011;45330;51.634;5.562;2023-09-19T02:32:14;15.82;;;3.20;;
59512;SDS011;45330;51.634;5.562;2023-09-19T02:34:39;17.30;;;3.17;;
59512;SDS011;45330;51.634;5.562;2023-09-19T02:37:05;14.45;;;3.10;;
59512;SDS011;45330;51.634;5.562;2023-09-19T02:39:31;19.13;;;3.78;;
59512;SDS011;45330;51.634;5.562;2023-09-19T02:41:57;15.27;;;3.40;;
59512;SDS011;45330;51.634;5.562;2023-09-19T02:44:22;14.23;;;3.03;;
59512;SDS011;45330;51.634;5.562;2023-09-19T02:46:48;16.17;;;2.80;;
59512;SDS011;45330;51.634;5.562;2023-09-19T02:49:14;14.63;;;2.90;;
59512;SDS011;45330;51.634;5.562;2023-09-19T02:51:40;14.77;;;2.88;;
59512;SDS011;45330;51.634;5.562;2023-09-19T02:54:06;20.52;;;3.00;;
59512;SDS011;45330;51.634;5.562;2023-09-19T02:56:31;20.27;;;3.58;;
59512;SDS011;45330;51.634;5.562;2023-09-19T02:58:57;17.55;;;3.25;;
59512;SDS011;45330;51.634;5.562;2023-09-19T03:01:23;17.42;;;3.13;;
59512;SDS011;45330;51.634;5.562;2023-09-19T03:03:48;16.08;;;2.78;;
59512;SDS011;45330;51.634;5.562;2023-09-19T03:06:14;13.35;;;3.40;;
59512;SDS011;45330;51.634;5.562;2023-09-19T03:08:40;17.45;;;3.35;;
59512;SDS011;45330;51.634;5.562;2023-09-19T03:11:10;15.02;;;3.00;;
59512;SDS011;45330;51.634;5.562;2023-09-19T03:13:37;16.40;;;3.30;;
59512;SDS011;45330;51.634;5.562;2023-09-19T03:16:06;11.98;;;2.72;;
59512;SDS011;45330;51.634;5.562;2023-09-19T03:18:32;17.90;;;3.42;;
59512;SDS011;45330;51.634;5.562;2023-09-19T03:20:59;17.17;;;2.80;;
59512;SDS011;45330;51.634;5.562;2023-09-19T03:23:25;15.48;;;2.90;;
59512;SDS011;45330;51.634;5.562;2023-09-19T03:25:51;16.30;;;3.03;;
59512;SDS011;45330;51.634;5.562;2023-09-19T03:28:21;21.13;;;3.72;;
59512;SDS011;45330;51.634;5.562;2023-09-19T03:31:08;13.55;;;2.70;;
59512;SDS011;45330;51.634;5.562;2023-09-19T03:33:33;14.27;;;3.00;;
59512;SDS011;45330;51.634;5.562;2023-09-19T03:35:59;17.35;;;3.20;;
59512;SDS011;45330;51.634;5.562;2023-09-19T03:38:26;14.32;;;2.78;;
59512;SDS011;45330;51.634;5.562;2023-09-19T03:40:53;13.10;;;3.22;;
59512;SDS011;45330;51.634;5.562;2023-09-19T03:43:18;14.75;;;3.08;;
59512;SDS011;45330;51.634;5.562;2023-09-19T03:45:44;20.08;;;3.45;;
59512;SDS011;45330;51.634;5.562;2023-09-19T03:48:11;16.92;;;3.22;;
59512;SDS011;45330;51.634;5.562;2023-09-19T03:50:38;14.38;;;2.65;;
59512;SDS011;45330;51.634;5.562;2023-09-19T03:53:04;13.82;;;3.00;;
59512;SDS011;45330;51.634;5.562;2023-09-19T03:55:32;14.98;;;3.13;;
59512;SDS011;45330;51.634;5.562;2023-09-19T03:57:57;15.65;;;2.65;;
59512;SDS011;45330;51.634;5.562;2023-09-19T04:00:23;13.07;;;2.95;;
59512;SDS011;45330;51.634;5.562;2023-09-19T04:02:51;14.07;;;3.28;;
59512;SDS011;45330;51.634;5.562;2023-09-19T04:05:18;17.58;;;3.20;;
59512;SDS011;45330;51.634;5.562;2023-09-19T04:07:43;15.85;;;2.47;;
59512;SDS011;45330;51.634;5.562;2023-09-19T04:10:09;17.23;;;3.70;;
59512;SDS011;45330;51.634;5.562;2023-09-19T04:12:36;13.77;;;2.88;;
59512;SDS011;45330;51.634;5.562;2023-09-19T04:15:02;12.50;;;2.70;;
59512;SDS011;45330;51.634;5.562;2023-09-19T04:17:29;16.27;;;3.10;;
59512;SDS011;45330;51.634;5.562;2023-09-19T04:19:54;14.10;;;3.15;;
59512;SDS011;45330;51.634;5.562;2023-09-19T04:22:20;14.43;;;3.05;;
59512;SDS011;45330;51.634;5.562;2023-09-19T04:24:45;17.30;;;3.08;;
59512;SDS011;45330;51.634;5.562;2023-09-19T04:27:11;11.63;;;2.78;;
59512;SDS011;45330;51.634;5.562;2023-09-19T04:29:39;15.25;;;3.08;;
59512;SDS011;45330;51.634;5.562;2023-09-19T04:32:06;13.48;;;3.08;;
59512;SDS011;45330;51.634;5.562;2023-09-19T04:34:32;14.70;;;3.05;;
59512;SDS011;45330;51.634;5.562;2023-09-19T04:36:59;14.02;;;2.75;;
59512;SDS011;45330;51.634;5.562;2023-09-19T04:39:25;18.35;;;2.90;;
59512;SDS011;45330;51.634;5.562;2023-09-19T04:41:51;15.55;;;3.00;;
59512;SDS011;45330;51.634;5.562;2023-09-19T04:44:18;15.60;;;2.95;;
59512;SDS011;45330;51.634;5.562;2023-09-19T04:46:43;14.43;;;2.97;;
59512;SDS011;45330;51.634;5.562;2023-09-19T04:49:09;16.55;;;2.83;;
59512;SDS011;45330;51.634;5.562;2023-09-19T04:51:34;17.42;;;3.10;;
59512;SDS011;45330;51.634;5.562;2023-09-19T04:54:01;14.88;;;2.72;;
59512;SDS011;45330;51.634;5.562;2023-09-19T04:56:27;22.48;;;3.30;;
59512;SDS011;45330;51.634;5.562;2023-09-19T04:58:53;16.52;;;2.83;;
59512;SDS011;45330;51.634;5.562;2023-09-19T05:01:19;12.10;;;2.70;;
59512;SDS011;45330;51.634;5.562;2023-09-19T05:03:47;17.88;;;3.00;;
59512;SDS011;45330;51.634;5.562;2023-09-19T05:06:17;19.15;;;3.20;;
59512;SDS011;45330;51.634;5.562;2023-09-19T05:08:43;19.67;;;3.67;;
59512;SDS011;45330;51.634;5.562;2023-09-19T05:11:08;16.65;;;3.05;;
59512;SDS011;45330;51.634;5.562;2023-09-19T05:13:34;15.00;;;3.25;;
59512;SDS011;45330;51.634;5.562;2023-09-19T05:16:00;17.40;;;3.10;;
59512;SDS011;45330;51.634;5.562;2023-09-19T05:18:27;14.50;;;2.75;;
59512;SDS011;45330;51.634;5.562;2023-09-19T05:20:53;17.40;;;3.05;;
59512;SDS011;45330;51.634;5.562;2023-09-19T05:23:19;14.48;;;3.05;;
59512;SDS011;45330;51.634;5.562;2023-09-19T05:25:46;17.58;;;3.20;;
59512;SDS011;45330;51.634;5.562;2023-09-19T05:28:11;13.98;;;2.70;;
59512;SDS011;45330;51.634;5.562;2023-09-19T05:30:40;16.98;;;3.17;;
59512;SDS011;45330;51.634;5.562;2023-09-19T05:33:06;16.13;;;3.22;;
59512;SDS011;45330;51.634;5.562;2023-09-19T05:35:32;17.70;;;3.17;;
59512;SDS011;45330;51.634;5.562;2023-09-19T05:37:58;16.83;;;2.92;;
59512;SDS011;45330;51.634;5.562;2023-09-19T05:40:25;17.55;;;3.42;;
59512;SDS011;45330;51.634;5.562;2023-09-19T05:42:51;15.90;;;3.17;;
59512;SDS011;45330;51.634;5.562;2023-09-19T05:45:16;18.33;;;3.40;;
59512;SDS011;45330;51.634;5.562;2023-09-19T05:47:50;13.77;;;3.00;;
59512;SDS011;45330;51.634;5.562;2023-09-19T05:50:16;17.15;;;2.83;;
59512;SDS011;45330;51.634;5.562;2023-09-19T05:52:41;14.65;;;3.17;;
59512;SDS011;45330;51.634;5.562;2023-09-19T05:55:08;12.65;;;2.70;;
59512;SDS011;45330;51.634;5.562;2023-09-19T05:57:37;14.38;;;2.60;;
59512;SDS011;45330;51.634;5.562;2023-09-19T06:00:07;10.88;;;2.25;;
59512;SDS011;45330;51.634;5.562;2023-09-19T06:02:35;12.10;;;2.50;;
59512;SDS011;45330;51.634;5.562;2023-09-19T06:05:03;16.52;;;3.90;;
59512;SDS011;45330;51.634;5.562;2023-09-19T06:07:32;18.67;;;3.20;;
59512;SDS011;45330;51.634;5.562;2023-09-19T06:10:02;15.88;;;3.40;;
59512;SDS011;45330;51.634;5.562;2023-09-19T06:12:30;14.25;;;2.80;;
59512;SDS011;45330;51.634;5.562;2023-09-19T06:14:58;14.25;;;3.15;;
59512;SDS011;45330;51.634;5.562;2023-09-19T06:17:24;16.58;;;3.00;;
59512;SDS011;45330;51.634;5.562;2023-09-19T06:19:49;15.73;;;2.88;;
59512;SDS011;45330;51.634;5.562;2023-09-19T06:22:16;17.30;;;3.03;;
59512;SDS011;45330;51.634;5.562;2023-09-19T06:24:43;15.30;;;3.25;;
59512;SDS011;45330;51.634;5.562;2023-09-19T06:27:09;15.77;;;2.95;;
59512;SDS011;45330;51.634;5.562;2023-09-19T06:29:34;19.75;;;4.05;;
59512;SDS011;45330;51.634;5.562;2023-09-19T06:32:02;18.35;;;3.60;;
59512;SDS011;45330;51.634;5.562;2023-09-19T06:34:32;15.90;;;2.83;;
59512;SDS011;45330;51.634;5.562;2023-09-19T06:36:58;16.77;;;3.50;;
59512;SDS011;45330;51.634;5.562;2023-09-19T06:39:23;16.10;;;3.20;;
59512;SDS011;45330;51.634;5.562;2023-09-19T06:41:50;17.33;;;3.10;;
59512;SDS011;45330;51.634;5.562;2023-09-19T06:44:18;19.27;;;3.30;;
59512;SDS011;45330;51.634;5.562;2023-09-19T06:46:45;15.65;;;3.33;;
59512;SDS011;45330;51.634;5.562;2023-09-19T06:49:15;19.13;;;3.60;;
59512;SDS011;45330;51.634;5.562;2023-09-19T06:51:40;18.02;;;3.53;;
59512;SDS011;45330;51.634;5.562;2023-09-19T06:54:07;17.13;;;3.30;;
59512;SDS011;45330;51.634;5.562;2023-09-19T06:56:32;15.48;;;3.13;;
59512;SDS011;45330;51.634;5.562;2023-09-19T06:58:58;17.58;;;3.38;;
59512;SDS011;45330;51.634;5.562;2023-09-19T07:01:23;17.48;;;3.40;;
59512;SDS011;45330;51.634;5.562;2023-09-19T07:03:49;16.25;;;3.47;;
59512;SDS011;45330;51.634;5.562;2023-09-19T07:06:14;20.05;;;5.05;;
59512;SDS011;45330;51.634;5.562;2023-09-19T07:08:40;18.08;;;3.00;;
59512;SDS011;45330;51.634;5.562;2023-09-19T07:11:05;13.23;;;3.08;;
59512;SDS011;45330;51.634;5.562;2023-09-19T07:13:31;17.60;;;2.95;;
59512;SDS011;45330;51.634;5.562;2023-09-19T07:15:58;16.15;;;3.00;;
59512;SDS011;45330;51.634;5.562;2023-09-19T07:18:24;19.90;;;3.80;;
59512;SDS011;45330;51.634;5.562;2023-09-19T07:20:50;18.58;;;3.72;;
59512;SDS011;45330;51.634;5.562;2023-09-19T07:23:16;19.85;;;3.47;;
59512;SDS011;45330;51.634;5.562;2023-09-19T07:28:12;20.83;;;3.58;;
59512;SDS011;45330;51.634;5.562;2023-09-19T07:30:37;18.25;;;3.25;;
59512;SDS011;45330;51.634;5.562;2023-09-19T07:33:04;18.67;;;3.53;;
59512;SDS011;45330;51.634;5.562;2023-09-19T07:35:30;16.85;;;3.35;;
59512;SDS011;45330;51.634;5.562;2023-09-19T07:37:56;16.38;;;3.33;;
59512;SDS011;45330;51.634;5.562;2023-09-19T07:40:21;17.85;;;3.55;;
59512;SDS011;45330;51.634;5.562;2023-09-19T07:42:48;13.93;;;3.35;;
59512;SDS011;45330;51.634;5.562;2023-09-19T07:45:14;13.90;;;2.80;;
59512;SDS011;45330;51.634;5.562;2023-09-19T07:47:48;16.80;;;3.53;;
59512;SDS011;45330;51.634;5.562;2023-09-19T07:50:16;17.20;;;3.50;;
59512;SDS011;45330;51.634;5.562;2023-09-19T07:52:44;14.25;;;2.92;;
59512;SDS011;45330;51.634;5.562;2023-09-19T07:55:10;22.02;;;3.40;;
59512;SDS011;45330;51.634;5.562;2023-09-19T07:57:45;16.63;;;3.20;;
59512;SDS011;45330;51.634;5.562;2023-09-19T08:00:11;17.85;;;3.17;;
59512;SDS011;45330;51.634;5.562;2023-09-19T08:02:38;18.02;;;3.20;;
59512;SDS011;45330;51.634;5.562;2023-09-19T08:05:04;15.07;;;3.30;;
59512;SDS011;45330;51.634;5.562;2023-09-19T08:07:40;16.70;;;3.15;;
59512;SDS011;45330;51.634;5.562;2023-09-19T08:10:06;12.35;;;3.28;;
59512;SDS011;45330;51.634;5.562;2023-09-19T08:12:36;16.05;;;3.05;;
59512;SDS011;45330;51.634;5.562;2023-09-19T08:15:02;16.02;;;3.03;;
59512;SDS011;45330;51.634;5.562;2023-09-19T08:17:28;18.02;;;3.22;;
59512;SDS011;45330;51.634;5.562;2023-09-19T08:19:53;16.85;;;3.10;;
59512;SDS011;45330;51.634;5.562;2023-09-19T08:22:19;19.00;;;3.38;;
59512;SDS011;45330;51.634;5.562;2023-09-19T08:24:45;17.95;;;3.30;;
59512;SDS011;45330;51.634;5.562;2023-09-19T08:27:11;18.60;;;3.50;;
59512;SDS011;45330;51.634;5.562;2023-09-19T08:29:37;16.23;;;2.80;;
59512;SDS011;45330;51.634;5.562;2023-09-19T08:32:03;17.75;;;3.35;;
59512;SDS011;45330;51.634;5.562;2023-09-19T08:34:29;18.20;;;3.33;;
59512;SDS011;45330;51.634;5.562;2023-09-19T08:36:56;19.00;;;3.75;;
59512;SDS011;45330;51.634;5.562;2023-09-19T08:39:24;19.83;;;3.40;;
59512;SDS011;45330;51.634;5.562;2023-09-19T08:42:00;15.98;;;3.65;;
59512;SDS011;45330;51.634;5.562;2023-09-19T08:44:29;14.60;;;3.40;;
59512;SDS011;45330;51.634;5.562;2023-09-19T08:46:56;18.13;;;3.47;;
59512;SDS011;45330;51.634;5.562;2023-09-19T08:52:19;15.52;;;2.90;;
59512;SDS011;45330;51.634;5.562;2023-09-19T08:54:48;13.68;;;3.10;;
59512;SDS011;45330;51.634;5.562;2023-09-19T08:57:18;19.23;;;3.33;;
59512;SDS011;45330;51.634;5.562;2023-09-19T08:59:47;12.50;;;3.08;;
59512;SDS011;45330;51.634;5.562;2023-09-19T09:02:14;16.75;;;2.95;;
59512;SDS011;45330;51.634;5.562;2023-09-19T09:04:40;20.20;;;3.50;;
59512;SDS011;45330;51.634;5.562;2023-09-19T09:07:10;17.80;;;3.45;;
59512;SDS011;45330;51.634;5.562;2023-09-19T09:09:37;17.15;;;3.22;;
59512;SDS011;45330;51.634;5.562;2023-09-19T09:12:07;17.65;;;3.67;;
59512;SDS011;45330;51.634;5.562;2023-09-19T09:14:45;16.35;;;3.50;;
59512;SDS011;45330;51.634;5.562;2023-09-19T09:17:13;14.15;;;3.05;;
59512;SDS011;45330;51.634;5.562;2023-09-19T09:19:39;18.25;;;3.15;;
59512;SDS011;45330;51.634;5.562;2023-09-19T09:22:09;17.17;;;3.42;;
59512;SDS011;45330;51.634;5.562;2023-09-19T09:24:36;16.13;;;3.00;;
59512;SDS011;45330;51.634;5.562;2023-09-19T09:27:04;16.38;;;3.33;;
59512;SDS011;45330;51.634;5.562;2023-09-19T09:32:18;16.15;;;2.97;;
59512;SDS011;45330;51.634;5.562;2023-09-19T09:34:45;17.88;;;3.50;;
59512;SDS011;45330;51.634;5.562;2023-09-19T09:37:18;18.23;;;3.43;;
59512;SDS011;45330;51.634;5.562;2023-09-19T09:39:54;16.17;;;3.20;;
59512;SDS011;45330;51.634;5.562;2023-09-19T09:42:35;16.42;;;3.50;;
59512;SDS011;45330;51.634;5.562;2023-09-19T09:45:19;14.07;;;2.95;;
59512;SDS011;45330;51.634;5.562;2023-09-19T09:47:58;17.20;;;3.33;;
59512;SDS011;45330;51.634;5.562;2023-09-19T09:50:29;18.57;;;3.33;;
59512;SDS011;45330;51.634;5.562;2023-09-19T09:53:25;19.42;;;4.43;;
59512;SDS011;45330;51.634;5.562;2023-09-19T09:58:32;16.45;;;3.28;;
59512;SDS011;45330;51.634;5.562;2023-09-19T10:01:03;17.65;;;3.65;;
59512;SDS011;45330;51.634;5.562;2023-09-19T10:03:38;25.00;;;3.63;;
59512;SDS011;45330;51.634;5.562;2023-09-19T10:06:09;16.25;;;3.20;;
59512;SDS011;45330;51.634;5.562;2023-09-19T10:09:05;16.67;;;3.10;;
59512;SDS011;45330;51.634;5.562;2023-09-19T10:12:02;17.77;;;3.50;;
59512;SDS011;45330;51.634;5.562;2023-09-19T10:14:34;16.98;;;3.78;;
59512;SDS011;45330;51.634;5.562;2023-09-19T10:17:03;14.57;;;3.30;;
59512;SDS011;45330;51.634;5.562;2023-09-19T10:19:37;17.60;;;3.10;;
59512;SDS011;45330;51.634;5.562;2023-09-19T10:22:34;15.93;;;3.20;;
59512;SDS011;45330;51.634;5.562;2023-09-19T10:25:00;13.57;;;3.17;;
59512;SDS011;45330;51.634;5.562;2023-09-19T10:27:30;14.32;;;3.30;;
59512;SDS011;45330;51.634;5.562;2023-09-19T10:30:02;13.15;;;2.83;;
59512;SDS011;45330;51.634;5.562;2023-09-19T10:32:32;14.75;;;3.63;;
59512;SDS011;45330;51.634;5.562;2023-09-19T10:34:59;14.15;;;2.90;;
59512;SDS011;45330;51.634;5.562;2023-09-19T10:37:26;13.82;;;3.05;;
59512;SDS011;45330;51.634;5.562;2023-09-19T10:39:55;16.50;;;3.30;;
59512;SDS011;45330;51.634;5.562;2023-09-19T10:42:21;15.70;;;3.25;;
59512;SDS011;45330;51.634;5.562;2023-09-19T10:44:52;15.52;;;3.00;;
59512;SDS011;45330;51.634;5.562;2023-09-19T10:47:19;16.02;;;3.10;;
59512;SDS011;45330;51.634;5.562;2023-09-19T10:49:45;15.60;;;3.13;;
59512;SDS011;45330;51.634;5.562;2023-09-19T10:52:12;14.52;;;2.83;;
59512;SDS011;45330;51.634;5.562;2023-09-19T10:54:45;16.83;;;2.85;;
59512;SDS011;45330;51.634;5.562;2023-09-19T10:57:25;16.90;;;2.97;;
59512;SDS011;45330;51.634;5.562;2023-09-19T11:00:07;14.57;;;3.17;;
59512;SDS011;45330;51.634;5.562;2023-09-19T11:05:40;14.05;;;2.70;;
59512;SDS011;45330;51.634;5.562;2023-09-19T11:08:06;14.88;;;3.30;;
59512;SDS011;45330;51.634;5.562;2023-09-19T11:13:28;10.02;;;2.80;;
59512;SDS011;45330;51.634;5.562;2023-09-19T11:26:47;10.77;;;2.35;;
59512;SDS011;45330;51.634;5.562;2023-09-19T11:29:29;12.88;;;2.78;;
59512;SDS011;45330;51.634;5.562;2023-09-19T11:31:58;13.13;;;2.75;;
59512;SDS011;45330;51.634;5.562;2023-09-19T11:37:02;12.73;;;2.80;;
59512;SDS011;45330;51.634;5.562;2023-09-19T11:39:29;13.88;;;2.80;;
59512;SDS011;45330;51.634;5.562;2023-09-19T11:41:55;11.93;;;2.70;;
59512;SDS011;45330;51.634;5.562;2023-09-19T11:46:51;13.05;;;2.40;;
59512;SDS011;45330;51.634;5.562;2023-09-19T11:49:18;11.75;;;2.30;;
59512;SDS011;45330;51.634;5.562;2023-09-19T11:51:49;11.30;;;2.55;;
59512;SDS011;45330;51.634;5.562;2023-09-19T11:54:19;16.48;;;2.55;;
59512;SDS011;45330;51.634;5.562;2023-09-19T11:56:49;9.25;;;2.13;;
59512;SDS011;45330;51.634;5.562;2023-09-19T11:59:26;9.98;;;2.17;;
59512;SDS011;45330;51.634;5.562;2023-09-19T12:02:00;9.75;;;2.00;;
59512;SDS011;45330;51.634;5.562;2023-09-19T12:04:35;8.32;;;2.20;;
59512;SDS011;45330;51.634;5.562;2023-09-19T12:07:08;8.45;;;1.90;;
59512;SDS011;45330;51.634;5.562;2023-09-19T12:09:38;8.93;;;2.13;;
59512;SDS011;45330;51.634;5.562;2023-09-19T12:12:05;11.77;;;2.15;;
59512;SDS011;45330;51.634;5.562;2023-09-19T12:14:31;10.70;;;2.20;;
59512;SDS011;45330;51.634;5.562;2023-09-19T12:16:56;10.30;;;2.38;;
59512;SDS011;45330;51.634;5.562;2023-09-19T12:19:25;7.60;;;1.70;;
59512;SDS011;45330;51.634;5.562;2023-09-19T12:21:57;11.70;;;2.35;;
59512;SDS011;45330;51.634;5.562;2023-09-19T12:24:29;7.43;;;2.10;;
59512;SDS011;45330;51.634;5.562;2023-09-19T12:26:59;8.25;;;2.20;;
59512;SDS011;45330;51.634;5.562;2023-09-19T12:29:32;11.25;;;2.30;;
59512;SDS011;45330;51.634;5.562;2023-09-19T12:32:10;9.27;;;1.75;;
59512;SDS011;45330;51.634;5.562;2023-09-19T12:34:36;7.47;;;2.10;;
59512;SDS011;45330;51.634;5.562;2023-09-19T12:39:41;7.32;;;1.90;;
59512;SDS011;45330;51.634;5.562;2023-09-19T12:42:11;15.20;;;2.65;;
59512;SDS011;45330;51.634;5.562;2023-09-19T12:44:41;9.52;;;2.17;;
59512;SDS011;45330;51.634;5.562;2023-09-19T12:47:09;10.95;;;1.95;;
59512;SDS011;45330;51.634;5.562;2023-09-19T12:52:36;10.50;;;1.95;;
59512;SDS011;45330;51.634;5.562;2023-09-19T12:55:05;10.18;;;2.25;;
59512;SDS011;45330;51.634;5.562;2023-09-19T12:57:32;11.95;;;2.20;;
59512;SDS011;45330;51.634;5.562;2023-09-19T13:00:00;5.10;;;1.52;;
59512;SDS011;45330;51.634;5.562;2023-09-19T13:02:35;5.93;;;1.67;;
59512;SDS011;45330;51.634;5.562;2023-09-19T13:05:01;8.45;;;1.92;;
59512;SDS011;45330;51.634;5.562;2023-09-19T13:07:44;5.78;;;1.70;;
59512;SDS011;45330;51.634;5.562;2023-09-19T13:10:14;7.30;;;1.90;;
59512;SDS011;45330;51.634;5.562;2023-09-19T13:12:41;7.50;;;1.73;;
59512;SDS011;45330;51.634;5.562;2023-09-19T13:15:12;6.30;;;1.65;;
59512;SDS011;45330;51.634;5.562;2023-09-19T13:17:44;3.72;;;1.75;;
59512;SDS011;45330;51.634;5.562;2023-09-19T13:20:21;5.53;;;1.60;;
59512;SDS011;45330;51.634;5.562;2023-09-19T13:22:54;7.50;;;1.90;;
59512;SDS011;45330;51.634;5.562;2023-09-19T13:27:52;6.55;;;1.75;;
59512;SDS011;45330;51.634;5.562;2023-09-19T13:30:22;10.30;;;1.88;;
59512;SDS011;45330;51.634;5.562;2023-09-19T13:33:04;7.30;;;1.65;;
59512;SDS011;45330;51.634;5.562;2023-09-19T13:35:31;7.18;;;1.60;;
59512;SDS011;45330;51.634;5.562;2023-09-19T13:37:57;6.53;;;2.05;;
59512;SDS011;45330;51.634;5.562;2023-09-19T13:40:23;6.25;;;1.80;;
59512;SDS011;45330;51.634;5.562;2023-09-19T13:42:49;8.13;;;2.60;;
59512;SDS011;45330;51.634;5.562;2023-09-19T13:45:18;6.55;;;1.80;;
59512;SDS011;45330;51.634;5.562;2023-09-19T13:47:47;9.02;;;1.80;;
59512;SDS011;45330;51.634;5.562;2023-09-19T13:50:12;8.55;;;2.08;;
59512;SDS011;45330;51.634;5.562;2023-09-19T13:52:37;10.60;;;1.80;;
59512;SDS011;45330;51.634;5.562;2023-09-19T13:55:03;8.80;;;2.00;;
59512;SDS011;45330;51.634;5.562;2023-09-19T13:57:30;8.48;;;1.75;;
59512;SDS011;45330;51.634;5.562;2023-09-19T13:59:55;7.60;;;1.75;;
59512;SDS011;45330;51.634;5.562;2023-09-19T14:02:24;6.88;;;1.58;;
59512;SDS011;45330;51.634;5.562;2023-09-19T14:04:51;10.52;;;1.90;;
59512;SDS011;45330;51.634;5.562;2023-09-19T14:07:17;7.18;;;2.08;;
59512;SDS011;45330;51.634;5.562;2023-09-19T14:09:44;6.38;;;1.88;;
59512;SDS011;45330;51.634;5.562;2023-09-19T14:12:10;6.43;;;1.88;;
59512;SDS011;45330;51.634;5.562;2023-09-19T14:14:36;10.50;;;2.03;;
59512;SDS011;45330;51.634;5.562;2023-09-19T14:17:02;5.60;;;1.80;;
59512;SDS011;45330;51.634;5.562;2023-09-19T14:19:28;7.80;;;1.95;;
59512;SDS011;45330;51.634;5.562;2023-09-19T14:21:53;7.68;;;1.73;;
59512;SDS011;45330;51.634;5.562;2023-09-19T14:24:22;6.47;;;1.70;;
59512;SDS011;45330;51.634;5.562;2023-09-19T14:26:48;6.38;;;1.80;;
59512;SDS011;45330;51.634;5.562;2023-09-19T14:29:14;7.75;;;1.85;;
59512;SDS011;45330;51.634;5.562;2023-09-19T14:31:40;7.32;;;1.90;;
59512;SDS011;45330;51.634;5.562;2023-09-19T14:34:06;7.40;;;1.75;;
59512;SDS011;45330;51.634;5.562;2023-09-19T14:36:32;7.38;;;1.80;;
59512;SDS011;45330;51.634;5.562;2023-09-19T14:38:58;8.07;;;2.00;;
59512;SDS011;45330;51.634;5.562;2023-09-19T14:41:24;7.03;;;1.52;;
59512;SDS011;45330;51.634;5.562;2023-09-19T14:43:51;11.05;;;2.17;;
59512;SDS011;45330;51.634;5.562;2023-09-19T14:46:17;8.07;;;1.80;;
59512;SDS011;45330;51.634;5.562;2023-09-19T14:48:44;5.50;;;1.70;;
59512;SDS011;45330;51.634;5.562;2023-09-19T14:51:12;7.93;;;2.08;;
59512;SDS011;45330;51.634;5.562;2023-09-19T14:53:38;12.27;;;2.55;;
59512;SDS011;45330;51.634;5.562;2023-09-19T14:56:08;5.20;;;1.65;;
59512;SDS011;45330;51.634;5.562;2023-09-19T14:58:34;11.23;;;2.10;;
59512;SDS011;45330;51.634;5.562;2023-09-19T15:01:07;8.95;;;1.65;;
59512;SDS011;45330;51.634;5.562;2023-09-19T15:03:35;10.85;;;2.20;;
59512;SDS011;45330;51.634;5.562;2023-09-19T15:06:04;9.07;;;1.80;;
59512;SDS011;45330;51.634;5.562;2023-09-19T15:08:35;9.60;;;2.00;;
59512;SDS011;45330;51.634;5.562;2023-09-19T15:11:06;11.18;;;2.00;;
59512;SDS011;45330;51.634;5.562;2023-09-19T15:13:32;8.80;;;2.00;;
59512;SDS011;45330;51.634;5.562;2023-09-19T15:16:08;8.05;;;1.90;;
59512;SDS011;45330;51.634;5.562;2023-09-19T15:18:34;7.80;;;1.88;;
59512;SDS011;45330;51.634;5.562;2023-09-19T15:21:05;7.43;;;1.80;;
59512;SDS011;45330;51.634;5.562;2023-09-19T15:23:32;9.00;;;1.90;;
59512;SDS011;45330;51.634;5.562;2023-09-19T15:25:59;10.60;;;2.10;;
59512;SDS011;45330;51.634;5.562;2023-09-19T15:28:35;5.18;;;1.80;;
59512;SDS011;45330;51.634;5.562;2023-09-19T15:31:01;5.85;;;2.00;;
59512;SDS011;45330;51.634;5.562;2023-09-19T15:33:31;6.82;;;1.98;;
59512;SDS011;45330;51.634;5.562;2023-09-19T15:41:40;8.30;;;2.00;;
59512;SDS011;45330;51.634;5.562;2023-09-19T15:44:13;6.68;;;1.75;;
59512;SDS011;45330;51.634;5.562;2023-09-19T15:46:40;8.00;;;2.00;;
59512;SDS011;45330;51.634;5.562;2023-09-19T15:49:06;7.15;;;1.98;;
59512;SDS011;45330;51.634;5.562;2023-09-19T15:51:32;9.95;;;2.08;;